createdAt,value
2022-12-14T00:01:23.222Z,-5.03
2022-12-14T00:06:45.133Z,-5.15
2022-12-14T00:12:08.815Z,-5.30
2022-12-14T00:17:30.821Z,-5.21
2022-12-14T00:22:52.772Z,-5.29
2022-12-14T00:28:14.556Z,-5.33
2022-12-14T00:33:36.796Z,-5.37
2022-12-14T00:38:58.653Z,-5.41
2022-12-14T00:44:20.443Z,-5.40
2022-12-14T00:49:42.331Z,-5.44
2022-12-14T00:55:04.496Z,-5.49
2022-12-14T01:00:26.370Z,-5.57
2022-12-14T01:05:49.370Z,-5.64
2022-12-14T01:11:12.226Z,-5.65
2022-12-14T01:16:34.802Z,-5.66
2022-12-14T01:21:56.654Z,-5.81
2022-12-14T01:27:18.660Z,-5.93
2022-12-14T01:32:40.552Z,-6.07
2022-12-14T01:38:02.337Z,-6.06
2022-12-14T01:43:24.574Z,-6.15
2022-12-14T01:48:48.938Z,-6.26
2022-12-14T01:54:13.722Z,-6.37
2022-12-14T01:59:40.390Z,-6.55
2022-12-14T02:05:03.637Z,-6.59
2022-12-14T02:10:30.173Z,-6.75
2022-12-14T02:15:52.666Z,-6.96
2022-12-14T02:21:39.057Z,-7.04
2022-12-14T02:27:19.514Z,-7.20
2022-12-14T02:33:02.375Z,-7.24
2022-12-14T02:38:31.599Z,-7.35
2022-12-14T02:44:05.521Z,-7.57
2022-12-14T02:49:58.155Z,-7.68
2022-12-14T02:55:27.688Z,-7.76
2022-12-14T03:00:50.105Z,-7.82
2022-12-14T03:06:16.778Z,-7.96
2022-12-14T03:11:54.976Z,-8.02
2022-12-14T03:17:24.300Z,-8.11
2022-12-14T03:22:54.987Z,-8.18
2022-12-14T03:28:21.150Z,-8.26
2022-12-14T03:33:46.662Z,-8.33
2022-12-14T03:39:13.047Z,-8.33
2022-12-14T03:44:49.142Z,-8.47
2022-12-14T03:50:32.498Z,-8.57
2022-12-14T03:56:07.980Z,-8.60
2022-12-14T04:02:03.755Z,-8.65
2022-12-14T04:07:45.666Z,-8.76
2022-12-14T04:13:15.021Z,-8.73
2022-12-14T04:18:40.733Z,-8.74
2022-12-14T04:24:12.412Z,-8.81
2022-12-14T04:29:36.512Z,-8.92
2022-12-14T04:35:22.449Z,-9.02
2022-12-14T04:40:55.748Z,-9.03
2022-12-14T04:46:24.369Z,-9.11
2022-12-14T04:52:05.209Z,-9.24
2022-12-14T04:57:34.820Z,-9.22
2022-12-14T05:03:11.858Z,-9.26
2022-12-14T05:08:49.058Z,-9.33
2022-12-14T05:14:20.075Z,-9.47
2022-12-14T05:19:48.849Z,-9.55
2022-12-14T05:25:11.495Z,-9.76
2022-12-14T05:30:34.383Z,-9.89
2022-12-14T05:35:56.224Z,-9.95
2022-12-14T05:41:18.058Z,-10.20
2022-12-14T05:46:39.895Z,-10.24
2022-12-14T05:52:02.045Z,-10.31
2022-12-14T05:57:23.845Z,-10.29
2022-12-14T06:02:45.655Z,-10.54
2022-12-14T06:08:07.583Z,-10.38
2022-12-14T06:13:29.885Z,-10.30
2022-12-14T06:18:56.732Z,-10.36
2022-12-14T06:24:18.551Z,-10.48
2022-12-14T06:29:40.368Z,-10.47
2022-12-14T06:35:02.166Z,-10.26
2022-12-14T06:40:23.975Z,-10.27
2022-12-14T06:45:45.936Z,-10.15
2022-12-14T06:51:08.320Z,-10.08
2022-12-14T06:56:30.478Z,-9.98
2022-12-14T07:01:52.460Z,-9.84
2022-12-14T07:07:14.365Z,-9.69
2022-12-14T07:12:36.372Z,-9.41
2022-12-14T07:17:58.243Z,-9.22
2022-12-14T07:23:23.437Z,-8.32
2022-12-14T07:28:50.439Z,-6.98
2022-12-14T07:34:13.065Z,-5.72
2022-12-14T07:39:34.962Z,-3.16
2022-12-14T07:44:56.775Z,-2.93
2022-12-14T07:50:18.664Z,-4.49
2022-12-14T07:55:40.473Z,-6.05
2022-12-14T08:01:10.372Z,-6.17
2022-12-14T08:06:32.767Z,-6.46
2022-12-14T08:11:54.555Z,-6.09
2022-12-14T08:17:16.337Z,-6.08
2022-12-14T08:22:38.145Z,-5.10
2022-12-14T08:27:59.928Z,-1.82
2022-12-14T08:33:22.362Z,-0.17
2022-12-14T08:38:44.759Z,0.08
2022-12-14T08:44:06.713Z,1.18
2022-12-14T08:49:32.262Z,2.01
2022-12-14T08:54:54.501Z,1.52
2022-12-14T09:00:16.566Z,2.12
2022-12-14T09:05:38.416Z,1.85
2022-12-14T09:11:01.729Z,2.09
2022-12-14T09:16:24.880Z,1.84
2022-12-14T09:21:46.973Z,3.03
2022-12-14T09:27:08.773Z,3.14
2022-12-14T09:32:30.568Z,4.30
2022-12-14T09:37:52.401Z,3.65
2022-12-14T09:43:37.089Z,3.54
2022-12-14T09:49:02.035Z,3.59
2022-12-14T09:54:27.943Z,1.88
2022-12-14T09:59:49.779Z,1.19
2022-12-14T10:05:37.907Z,-1.58
2022-12-14T10:11:18.599Z,-1.81
2022-12-14T10:16:51.961Z,-2.80
2022-12-14T10:22:18.141Z,-3.04
2022-12-14T10:28:09.700Z,-3.58
2022-12-14T10:33:32.007Z,-3.93
2022-12-14T10:39:01.035Z,-4.08
2022-12-14T10:44:38.898Z,-4.03
2022-12-14T10:50:32.747Z,-4.13
2022-12-14T10:56:01.926Z,-4.44
2022-12-14T11:01:23.854Z,-4.46
2022-12-14T11:06:45.747Z,-4.18
2022-12-14T11:12:17.302Z,-4.30
2022-12-14T11:17:41.977Z,-3.89
2022-12-14T11:23:19.377Z,-3.85
2022-12-14T11:28:50.097Z,-3.79
2022-12-14T11:34:40.548Z,-3.71
2022-12-14T11:40:06.049Z,-3.67
2022-12-14T11:45:31.362Z,-3.43
2022-12-14T11:50:56.138Z,-3.64
2022-12-14T11:56:18.375Z,-3.49
2022-12-14T12:01:40.268Z,-3.34
2022-12-14T12:07:22.862Z,-3.82
2022-12-14T12:12:54.080Z,-3.62
2022-12-14T12:18:22.702Z,-3.13
2022-12-14T12:23:56.130Z,-3.56
2022-12-14T12:29:22.547Z,-3.59
2022-12-14T12:34:51.596Z,-3.42
2022-12-14T12:40:22.891Z,-3.67
2022-12-14T12:45:49.447Z,-3.73
2022-12-14T12:51:16.673Z,-3.58
2022-12-14T12:56:55.106Z,-3.70
2022-12-14T13:02:37.973Z,-3.74
2022-12-14T13:08:13.135Z,-3.67
2022-12-14T13:13:36.762Z,-3.99
2022-12-14T13:19:40.541Z,-3.93
2022-12-14T13:24:54.041Z,-4.11
2022-12-14T13:30:22.107Z,-4.08
2022-12-14T13:36:08.428Z,-4.10
2022-12-14T13:41:45.063Z,-4.12
2022-12-14T13:47:15.156Z,-4.31
2022-12-14T13:52:42.350Z,-4.30
2022-12-14T13:58:20.172Z,-4.38
2022-12-14T14:03:48.417Z,-4.62
2022-12-14T14:09:31.291Z,-4.74
2022-12-14T14:15:08.186Z,-4.74
2022-12-14T14:20:36.257Z,-4.73
2022-12-14T14:26:17.669Z,-4.73
2022-12-14T14:32:02.508Z,-4.86
2022-12-14T14:37:29.822Z,-4.97
2022-12-14T14:42:59.247Z,-5.16
2022-12-14T14:48:39.914Z,-5.12
2022-12-14T14:54:37.668Z,-5.19
2022-12-14T15:00:02.112Z,-5.24
2022-12-14T15:05:44.741Z,-5.24
2022-12-14T15:11:15.457Z,-5.30
2022-12-14T15:16:45.259Z,-5.38
2022-12-14T15:22:12.975Z,-5.49
2022-12-14T15:27:38.094Z,-5.45
2022-12-14T15:33:09.307Z,-5.73
2022-12-14T15:38:33.258Z,-5.69
2022-12-14T15:43:59.764Z,-5.63
2022-12-14T15:49:23.058Z,-5.72
2022-12-14T15:54:44.936Z,-5.62
2022-12-14T16:00:10.932Z,-5.82
2022-12-14T16:05:34.862Z,-5.77
2022-12-14T16:11:01.219Z,-5.80
2022-12-14T16:16:23.330Z,-5.83
2022-12-14T16:21:49.625Z,-5.73
2022-12-14T16:27:20.191Z,-5.86
2022-12-14T16:32:42.874Z,-5.98
2022-12-14T16:38:14.374Z,-5.92
2022-12-14T16:43:39.759Z,-5.96
2022-12-14T16:49:20.872Z,-5.88
2022-12-14T16:54:43.371Z,-6.01
2022-12-14T17:00:06.340Z,-5.98
2022-12-14T17:05:35.395Z,-6.12
2022-12-14T17:10:57.855Z,-6.03
2022-12-14T17:16:20.992Z,-6.05
2022-12-14T17:21:42.991Z,-5.87
2022-12-14T17:27:04.834Z,-5.93
2022-12-14T17:32:29.694Z,-6.11
2022-12-14T17:37:52.363Z,-5.91
2022-12-14T17:43:19.680Z,-5.84
2022-12-14T17:48:41.506Z,-6.18
2022-12-14T17:54:03.455Z,-6.13
2022-12-14T17:59:26.029Z,-5.94
2022-12-14T18:04:48.232Z,-5.93
2022-12-14T18:10:15.468Z,-6.07
2022-12-14T18:15:40.921Z,-5.92
2022-12-14T18:21:04.454Z,-5.97
2022-12-14T18:26:26.381Z,-5.75
2022-12-14T18:31:49.588Z,-5.70
2022-12-14T18:37:11.887Z,-5.59
2022-12-14T18:42:34.073Z,-5.53
2022-12-14T18:47:56.575Z,-5.49
2022-12-14T18:53:20.329Z,-5.51
2022-12-14T18:58:42.438Z,-5.55
2022-12-14T19:04:04.515Z,-5.51
2022-12-14T19:09:26.373Z,-5.33
2022-12-14T19:14:49.352Z,-5.49
2022-12-14T19:20:13.825Z,-5.57
2022-12-14T19:25:35.599Z,-5.41
2022-12-14T19:30:58.212Z,-5.28
2022-12-14T19:36:20.040Z,-5.27
2022-12-14T19:41:41.886Z,-5.10
2022-12-14T19:47:03.756Z,-5.26
2022-12-14T19:52:25.775Z,-5.05
2022-12-14T19:57:47.869Z,-4.91
2022-12-14T20:03:09.830Z,-4.92
2022-12-14T20:08:33.010Z,-4.82
2022-12-14T20:13:59.916Z,-5.17
2022-12-14T20:19:24.810Z,-5.05
2022-12-14T20:24:46.674Z,-5.09
2022-12-14T20:30:09.046Z,-5.14
2022-12-14T20:35:33.514Z,-5.24
2022-12-14T20:40:55.462Z,-5.20
2022-12-14T20:46:38.423Z,-5.02
2022-12-14T20:52:00.278Z,-4.92
2022-12-14T20:57:22.261Z,-4.82
2022-12-14T21:02:44.302Z,-4.76
2022-12-14T21:08:06.179Z,-4.78
2022-12-14T21:13:28.260Z,-4.83
2022-12-14T21:18:50.409Z,-4.75
2022-12-14T21:24:31.109Z,-4.72
2022-12-14T21:29:54.924Z,-4.70
2022-12-14T21:35:16.944Z,-4.44
2022-12-14T21:40:38.740Z,-4.71
2022-12-14T21:46:00.568Z,-4.72
2022-12-14T21:51:22.633Z,-4.56
2022-12-14T21:56:44.442Z,-4.74
2022-12-14T22:02:15.302Z,-4.74
2022-12-14T22:07:37.303Z,-4.55
2022-12-14T22:12:59.074Z,-4.42
2022-12-14T22:18:21.112Z,-4.51
2022-12-14T22:23:43.763Z,-4.49
2022-12-14T22:29:07.242Z,-4.46
2022-12-14T22:34:29.055Z,-4.34
2022-12-14T22:39:50.819Z,-4.27
2022-12-14T22:45:12.583Z,-4.41
2022-12-14T22:50:34.386Z,-4.08
2022-12-14T22:56:01.662Z,-4.05
2022-12-14T23:01:24.320Z,-4.42
2022-12-14T23:06:46.171Z,-4.37
2022-12-14T23:12:11.499Z,-4.18
2022-12-14T23:17:33.906Z,-4.10
2022-12-14T23:22:55.775Z,-4.24
2022-12-14T23:28:17.657Z,-4.15
2022-12-14T23:33:39.453Z,-4.13
2022-12-14T23:39:01.228Z,-4.17
2022-12-14T23:44:23.091Z,-4.25
2022-12-14T23:49:44.933Z,-4.23
2022-12-14T23:55:07.494Z,-3.91
